Time;durP1;ratioP1;P1;durP2;ratioP2;P2;SDS_P1;SDS_P2;PMS_P1;PMS_P2;Temp;Humidity;BMP_temperature;BMP_pressure;BME280_temperature;BME280_humidity;BME280_pressure;Samples;Min_cycle;Max_cycle;Signal;HPM_P1;HPM_P2
2020/12/22 00:02:19;;;;;;;8.50;6.95;;;;;;;15.42;nan;100660.72;4982658;28;96971;-73
2020/12/22 00:04:47;;;;;;;10.13;7.32;;;;;;;15.45;nan;100647.59;4979064;28;97626;-73
2020/12/22 00:07:14;;;;;;;7.85;7.10;;;;;;;15.50;nan;100639.78;4990378;28;97259;-74
2020/12/22 00:09:42;;;;;;;8.23;6.90;;;;;;;15.53;nan;100640.78;4990742;28;96942;-74
2020/12/22 00:12:16;;;;;;;8.20;6.70;;;;;;;15.57;nan;100631.19;4986091;28;96941;-73
2020/12/22 00:14:43;;;;;;;7.80;6.38;;;;;;;15.50;nan;100624.81;4988036;28;98230;-72
2020/12/22 00:17:48;;;;;;;7.35;6.60;;;;;;;15.55;nan;100631.13;4987949;28;98415;-72
2020/12/22 00:20:16;;;;;;;6.70;6.03;;;;;;;15.59;nan;100621.53;4983919;28;97645;-72
2020/12/22 00:22:45;;;;;;;9.07;7.15;;;;;;;15.60;nan;100605.69;4987560;28;97314;-72
2020/12/22 00:25:13;;;;;;;8.52;7.10;;;;;;;15.61;nan;100599.56;4995178;28;96810;-73
2020/12/22 00:27:41;;;;;;;7.82;7.03;;;;;;;15.64;nan;100602.28;4993270;28;97972;-73
2020/12/22 00:30:09;;;;;;;7.63;6.40;;;;;;;15.60;nan;100592.44;4993373;28;97085;-72
2020/12/22 00:32:36;;;;;;;8.75;7.20;;;;;;;15.64;nan;100591.69;4988547;28;96982;-73
2020/12/22 00:35:04;;;;;;;8.43;6.97;;;;;;;15.66;nan;100599.69;4990970;28;99722;-71
2020/12/22 00:37:31;;;;;;;7.93;7.18;;;;;;;15.66;nan;100591.72;4983691;28;97572;-72
2020/12/22 00:39:58;;;;;;;9.68;7.50;;;;;;;15.67;nan;100586.50;4986400;28;96877;-73
2020/12/22 00:42:30;;;;;;;9.82;6.85;;;;;;;15.72;nan;100587.53;5002413;28;97345;-72
2020/12/22 00:44:59;;;;;;;8.55;7.55;;;;;;;15.73;nan;100585.78;4981994;28;97137;-71
2020/12/22 00:47:27;;;;;;;7.90;7.03;;;;;;;15.73;nan;100591.09;4979343;28;97865;-72
2020/12/22 00:49:56;;;;;;;7.90;7.00;;;;;;;15.84;nan;100592.28;4970902;28;97045;-70
2020/12/22 00:52:23;;;;;;;9.23;6.65;;;;;;;15.84;nan;100593.19;4970580;28;96967;-71
2020/12/22 00:54:51;;;;;;;7.95;6.70;;;;;;;15.88;nan;100600.38;4983735;28;97064;-72
2020/12/22 00:57:20;;;;;;;8.38;7.05;;;;;;;15.88;nan;100603.00;4990905;28;99650;-71
2020/12/22 01:00:16;;;;;;;9.70;6.65;;;;;;;15.90;nan;100601.31;4972363;28;96731;-74
2020/12/22 01:02:43;;;;;;;9.88;7.38;;;;;;;15.92;nan;100594.31;4971367;28;96847;-73
2020/12/22 01:05:10;;;;;;;10.00;7.40;;;;;;;15.92;nan;100591.66;4987279;28;98277;-73
2020/12/22 01:07:38;;;;;;;10.85;7.47;;;;;;;15.93;nan;100582.84;4989692;28;99058;-73
2020/12/22 01:10:05;;;;;;;8.77;7.68;;;;;;;15.99;nan;100569.78;4991004;28;96719;-73
2020/12/22 01:12:53;;;;;;;8.55;7.55;;;;;;;16.06;nan;100565.53;4996967;28;97138;-74
2020/12/22 01:15:21;;;;;;;9.60;7.53;;;;;;;16.02;nan;100569.84;4969447;28;99026;-73
2020/12/22 01:17:49;;;;;;;8.60;6.85;;;;;;;16.07;nan;100565.59;4973510;28;98949;-74
2020/12/22 01:20:16;;;;;;;8.80;7.60;;;;;;;16.14;nan;100559.59;4972470;28;96945;-75
2020/12/22 01:23:02;;;;;;;8.65;7.85;;;;;;;16.12;nan;100561.31;4969999;28;97380;-74
2020/12/22 01:25:29;;;;;;;9.07;7.80;;;;;;;16.14;nan;100553.41;4969435;28;97426;-74
2020/12/22 01:27:57;;;;;;;11.80;8.45;;;;;;;16.09;nan;100534.72;4975228;28;98009;-74
2020/12/22 01:30:25;;;;;;;9.25;7.78;;;;;;;16.08;nan;100540.88;4990220;28;96936;-74
2020/12/22 01:32:53;;;;;;;11.38;7.68;;;;;;;16.07;nan;100547.06;4990054;28;97055;-74
2020/12/22 01:35:20;;;;;;;10.27;7.57;;;;;;;16.11;nan;100535.66;4977784;28;97164;-74
2020/12/22 01:38:07;;;;;;;11.52;8.30;;;;;;;16.13;nan;100539.25;4976254;28;98792;-74
2020/12/22 01:40:34;;;;;;;8.38;7.55;;;;;;;16.12;nan;100528.59;4997690;28;97223;-74
2020/12/22 01:43:02;;;;;;;7.70;6.90;;;;;;;16.09;nan;100518.81;4994378;28;96879;-74
2020/12/22 01:45:30;;;;;;;8.35;7.55;;;;;;;16.11;nan;100516.22;4982889;28;99179;-74
2020/12/22 01:47:58;;;;;;;9.65;7.93;;;;;;;16.12;nan;100496.81;4988956;28;96917;-73
2020/12/22 01:50:25;;;;;;;10.25;7.82;;;;;;;16.12;nan;100491.50;4991935;28;96719;-74
2020/12/22 01:52:53;;;;;;;8.77;7.68;;;;;;;16.12;nan;100486.22;4987203;28;97240;-74
2020/12/22 01:55:20;;;;;;;8.82;7.68;;;;;;;16.16;nan;100478.41;4972445;28;97996;-73
2020/12/22 01:57:48;;;;;;;8.88;7.22;;;;;;;16.18;nan;100492.56;4967591;28;98584;-73
2020/12/22 02:00:15;;;;;;;10.85;7.60;;;;;;;16.14;nan;100490.69;4991877;28;96709;-74
2020/12/22 02:02:44;;;;;;;10.75;8.05;;;;;;;16.15;nan;100494.22;4993997;28;97130;-75
2020/12/22 02:05:12;;;;;;;10.77;7.88;;;;;;;16.17;nan;100490.78;4981651;28;98077;-74
2020/12/22 02:07:40;;;;;;;8.95;8.05;;;;;;;16.19;nan;100488.16;4971194;28;97828;-73
2020/12/22 02:10:07;;;;;;;8.73;7.82;;;;;;;16.20;nan;100484.66;4986190;28;96624;-74
2020/12/22 02:12:40;;;;;;;8.82;7.93;;;;;;;16.20;nan;100474.06;5000752;28;97055;-74
2020/12/22 02:15:07;;;;;;;8.90;8.00;;;;;;;16.23;nan;100472.38;4993035;28;98096;-73
2020/12/22 02:17:35;;;;;;;9.63;8.73;;;;;;;16.29;nan;100476.03;4992717;28;98171;-72
2020/12/22 02:20:04;;;;;;;9.13;7.38;;;;;;;16.29;nan;100486.66;4980354;28;96592;-73
2020/12/22 02:22:33;;;;;;;9.32;8.15;;;;;;;16.26;nan;100482.16;4992931;28;96926;-73
2020/12/22 02:25:02;;;;;;;9.00;7.55;;;;;;;16.28;nan;100464.53;4991485;28;98206;-72
2020/12/22 02:27:29;;;;;;;8.82;7.85;;;;;;;16.30;nan;100461.91;4982449;28;99033;-74
2020/12/22 02:29:57;;;;;;;8.68;7.85;;;;;;;16.33;nan;100456.72;4971552;28;97893;-73
2020/12/22 02:32:24;;;;;;;9.43;7.93;;;;;;;16.41;nan;100445.44;4993161;28;97161;-72
2020/12/22 02:34:52;;;;;;;9.77;8.13;;;;;;;16.43;nan;100448.09;4988111;28;97048;-74
2020/12/22 02:37:21;;;;;;;8.95;7.80;;;;;;;16.48;nan;100443.84;4971828;28;98909;-74
2020/12/22 02:39:50;;;;;;;9.23;8.02;;;;;;;16.51;nan;100449.25;4986535;28;96936;-74
2020/12/22 02:43:06;;;;;;;8.77;7.70;;;;;;;16.50;nan;100439.47;4994537;28;97236;-73
2020/12/22 02:45:34;;;;;;;8.27;7.47;;;;;;;16.50;nan;100436.81;4970176;28;98198;-72
2020/12/22 02:48:02;;;;;;;8.45;7.60;;;;;;;16.55;nan;100421.94;4992060;28;99081;-73
2020/12/22 02:50:29;;;;;;;9.40;7.32;;;;;;;16.51;nan;100414.78;4989997;28;96761;-73
2020/12/22 02:52:57;;;;;;;8.30;7.50;;;;;;;16.56;nan;100407.81;4982930;28;97003;-73
2020/12/22 02:55:26;;;;;;;8.20;6.65;;;;;;;16.53;nan;100402.44;4969679;28;98994;-73
2020/12/22 02:57:53;;;;;;;9.77;6.88;;;;;;;16.53;nan;100392.72;4989674;28;97298;-73
2020/12/22 03:00:22;;;;;;;9.18;7.32;;;;;;;16.54;nan;100375.06;4991922;28;96859;-73
2020/12/22 03:02:49;;;;;;;7.85;6.55;;;;;;;16.57;nan;100380.44;4971501;28;97347;-73
2020/12/22 03:05:17;;;;;;;8.15;6.38;;;;;;;16.58;nan;100371.63;4974642;28;97364;-74
2020/12/22 03:07:45;;;;;;;7.15;6.45;;;;;;;16.59;nan;100374.28;4988919;28;99068;-73
2020/12/22 03:10:14;;;;;;;7.57;6.75;;;;;;;16.59;nan;100371.66;4986950;28;96701;-74
2020/12/22 03:12:42;;;;;;;7.25;6.55;;;;;;;16.62;nan;100376.13;4997413;28;96976;-74
2020/12/22 03:15:10;;;;;;;6.80;6.13;;;;;;;16.66;nan;100375.34;4988620;28;97448;-74
2020/12/22 03:17:38;;;;;;;9.52;6.32;;;;;;;16.63;nan;100377.91;4983231;28;98667;-73
2020/12/22 03:20:07;;;;;;;7.25;6.55;;;;;;;16.67;nan;100370.06;4972860;28;97083;-74
2020/12/22 03:22:35;;;;;;;6.95;6.25;;;;;;;16.72;nan;100371.06;4972361;28;97111;-73
2020/12/22 03:25:03;;;;;;;7.68;6.88;;;;;;;16.68;nan;100374.50;4966679;28;99130;-73
2020/12/22 03:27:31;;;;;;;6.70;5.97;;;;;;;16.81;nan;100350.03;4978154;28;97828;-73
2020/12/22 03:30:01;;;;;;;8.38;6.50;;;;;;;16.84;nan;100349.22;4970567;28;96587;-74
2020/12/22 03:32:29;;;;;;;6.15;5.65;;;;;;;16.86;nan;100342.19;4971849;28;97110;-73
2020/12/22 03:34:56;;;;;;;6.50;5.90;;;;;;;16.92;nan;100332.59;4972338;28;97840;-73
2020/12/22 03:37:24;;;;;;;6.28;5.78;;;;;;;16.93;nan;100322.88;4989532;28;96738;-74
2020/12/22 03:39:53;;;;;;;8.60;6.60;;;;;;;16.98;nan;100321.19;4987525;28;97082;-73
2020/12/22 03:42:21;;;;;;;5.97;5.40;;;;;;;17.02;nan;100333.66;5001390;28;96859;-74
2020/12/22 03:44:49;;;;;;;7.53;6.28;;;;;;;17.04;nan;100338.13;4983247;28;98258;-74
2020/12/22 03:47:17;;;;;;;5.90;5.28;;;;;;;17.13;nan;100326.81;4988373;28;101867;-73
2020/12/22 03:49:44;;;;;;;5.72;5.03;;;;;;;17.11;nan;100316.19;4969834;28;96800;-73
2020/12/22 03:52:12;;;;;;;5.50;5.00;;;;;;;17.13;nan;100301.16;4968939;28;97101;-73
2020/12/22 03:54:39;;;;;;;5.82;5.32;;;;;;;17.13;nan;100300.28;4968512;28;98125;-74
2020/12/22 03:57:07;;;;;;;5.07;4.78;;;;;;;17.16;nan;100295.00;4970954;28;98902;-73
2020/12/22 03:59:35;;;;;;;5.60;5.20;;;;;;;17.16;nan;100301.22;5009380;28;96564;-72
2020/12/22 04:02:04;;;;;;;5.18;4.80;;;;;;;17.19;nan;100295.06;5009187;28;97012;-73
2020/12/22 04:04:32;;;;;;;5.22;4.80;;;;;;;17.14;nan;100299.41;4963881;28;101174;-73
2020/12/22 04:06:59;;;;;;;4.70;4.32;;;;;;;17.18;nan;100290.63;4988365;28;97399;-74
2020/12/22 04:09:27;;;;;;;5.03;4.65;;;;;;;17.24;nan;100288.97;5009828;22;97903;-72
2020/12/22 04:11:55;;;;;;;3.90;3.70;;;;;;;17.27;nan;100288.16;5014969;28;97383;-73
2020/12/22 04:14:23;;;;;;;3.78;3.58;;;;;;;17.27;nan;100268.66;5011685;27;98070;-71
2020/12/22 04:16:50;;;;;;;3.60;3.40;;;;;;;17.31;nan;100267.84;5036385;27;97519;-72
2020/12/22 04:19:18;;;;;;;3.70;3.50;;;;;;;17.35;nan;100260.00;4990264;28;97201;-72
2020/12/22 04:21:47;;;;;;;3.47;3.28;;;;;;;17.35;nan;100272.38;5009454;28;97017;-71
2020/12/22 04:24:15;;;;;;;3.20;3.10;;;;;;;17.40;nan;100263.59;5009078;28;98726;-72
2020/12/22 04:26:42;;;;;;;3.30;3.20;;;;;;;17.46;nan;100258.41;5024351;28;99002;-72
2020/12/22 04:29:09;;;;;;;3.20;3.10;;;;;;;17.54;nan;100262.09;5015294;28;97207;-71
2020/12/22 04:31:37;;;;;;;3.20;3.10;;;;;;;17.50;nan;100252.28;5007943;28;96803;-72
2020/12/22 04:34:04;;;;;;;3.50;3.28;;;;;;;17.52;nan;100257.63;4991303;28;97515;-72
2020/12/22 04:36:32;;;;;;;3.40;3.20;;;;;;;17.57;nan;100262.16;4999444;28;99564;-71
2020/12/22 04:39:19;;;;;;;3.25;3.15;;;;;;;17.56;nan;100257.72;5013410;28;97200;-70
2020/12/22 04:41:48;;;;;;;4.03;3.72;;;;;;;17.53;nan;100264.75;5025524;28;97224;-72
2020/12/22 04:44:16;;;;;;;4.20;3.90;;;;;;;17.54;nan;100254.16;5028128;28;97889;-72
2020/12/22 04:46:44;;;;;;;3.45;3.30;;;;;;;17.68;nan;100249.06;5010306;28;99372;-72
2020/12/22 04:49:13;;;;;;;3.78;3.58;;;;;;;17.85;nan;100237.81;5027979;28;97522;-71
2020/12/22 04:51:42;;;;;;;3.40;3.30;;;;;;;17.80;nan;100243.94;5007855;28;98005;-73
2020/12/22 04:54:25;;;;;;;3.33;3.22;;;;;;;17.81;nan;100246.63;5007706;28;97976;-72
2020/12/22 04:56:52;;;;;;;3.58;3.38;;;;;;;17.82;nan;100243.09;5025251;28;96881;-75
2020/12/22 04:59:20;;;;;;;3.90;3.70;;;;;;;17.87;nan;100246.72;5010041;28;96696;-71
2020/12/22 05:01:48;;;;;;;4.03;3.92;;;;;;;17.91;nan;100242.34;5024986;27;97507;-69
2020/12/22 05:04:35;;;;;;;3.60;3.40;;;;;;;17.91;nan;100256.53;5021693;28;98177;-70
2020/12/22 05:07:03;;;;;;;3.78;3.63;;;;;;;17.94;nan;100253.00;5009403;28;96983;-71
2020/12/22 05:09:32;;;;;;;3.78;3.47;;;;;;;18.01;nan;100249.59;5010044;28;97145;-71
2020/12/22 05:11:59;;;;;;;3.92;3.72;;;;;;;17.98;nan;100253.09;5009736;28;96884;-72
2020/12/22 05:14:28;;;;;;;3.92;3.80;;;;;;;17.99;nan;100257.53;5017402;28;98289;-71
2020/12/22 05:16:57;;;;;;;3.28;3.17;;;;;;;18.01;nan;100250.47;4981523;28;99765;-71
2020/12/22 05:19:24;;;;;;;3.72;3.53;;;;;;;17.97;nan;100250.41;5028614;28;97919;-71
2020/12/22 05:21:53;;;;;;;4.03;3.83;;;;;;;17.99;nan;100249.53;5011232;28;96917;-71
2020/12/22 05:24:20;;;;;;;4.20;4.00;;;;;;;18.03;nan;100245.16;5026039;28;98344;-71
2020/12/22 05:26:48;;;;;;;3.50;3.30;;;;;;;18.07;nan;100250.56;5018930;28;97864;-70
2020/12/22 05:29:18;;;;;;;3.75;3.50;;;;;;;18.13;nan;100248.00;5017637;28;96656;-71
2020/12/22 05:31:47;;;;;;;3.13;2.92;;;;;;;18.15;nan;100248.03;5008332;28;96853;-72
2020/12/22 05:34:16;;;;;;;3.53;3.33;;;;;;;18.20;nan;100243.66;4989463;28;99764;-72
2020/12/22 05:36:45;;;;;;;2.90;2.80;;;;;;;18.26;nan;100242.84;5021294;28;96768;-72
2020/12/22 05:39:14;;;;;;;3.00;2.90;;;;;;;18.31;nan;100233.16;5027221;28;97023;-72
2020/12/22 05:41:42;;;;;;;3.30;3.20;;;;;;;18.30;nan;100234.06;5028420;28;97020;-72
2020/12/22 05:44:10;;;;;;;2.90;2.80;;;;;;;18.37;nan;100242.13;5008633;28;97929;-72
2020/12/22 05:46:38;;;;;;;3.15;3.05;;;;;;;18.44;nan;100245.78;5026983;28;97874;-72
2020/12/22 05:49:07;;;;;;;2.85;2.75;;;;;;;18.45;nan;100244.94;5008065;28;96848;-71
2020/12/22 05:51:38;;;;;;;2.85;2.65;;;;;;;18.46;nan;100229.00;5003813;28;97172;-72
2020/12/22 05:54:08;;;;;;;2.53;2.40;;;;;;;18.58;nan;100223.81;5004210;28;98110;-71
2020/12/22 05:56:36;;;;;;;2.30;2.28;;;;;;;18.62;nan;100219.41;5000021;28;98627;-71
2020/12/22 05:59:03;;;;;;;2.30;2.20;;;;;;;18.44;nan;100219.19;5015746;28;97563;-72
2020/12/22 06:01:33;;;;;;;2.17;2.17;;;;;;;18.31;nan;100217.19;5005503;28;96942;-72
2020/12/22 06:04:02;;;;;;;2.25;2.22;;;;;;;18.27;nan;100215.38;4972570;28;97549;-72
2020/12/22 06:06:31;;;;;;;2.00;2.00;;;;;;;18.21;nan;100213.53;5018965;28;96986;-72
2020/12/22 06:08:59;;;;;;;2.50;2.30;;;;;;;18.10;nan;100213.38;4994414;28;96926;-70
2020/12/22 06:11:31;;;;;;;2.30;2.30;;;;;;;18.15;nan;100206.38;5027498;28;97253;-71
2020/12/22 06:14:05;;;;;;;1.90;1.90;;;;;;;18.19;nan;100215.31;5009340;28;97181;-71
2020/12/22 06:16:34;;;;;;;2.20;2.10;;;;;;;18.21;nan;100203.78;5016463;28;96810;-72
2020/12/22 06:19:02;;;;;;;1.90;1.90;;;;;;;18.27;nan;100199.41;5006321;28;96606;-71
2020/12/22 06:21:29;;;;;;;2.47;2.38;;;;;;;18.27;nan;100195.00;4973271;28;96884;-71
2020/12/22 06:23:57;;;;;;;1.90;1.90;;;;;;;18.14;nan;100204.59;5004485;27;99148;-71
2020/12/22 06:26:24;;;;;;;2.03;2.03;;;;;;;18.16;nan;100204.59;4989163;28;97760;-71
2020/12/22 06:28:52;;;;;;;1.77;1.77;;;;;;;18.20;nan;100193.13;5015069;28;97357;-72
2020/12/22 06:31:21;;;;;;;1.98;1.98;;;;;;;18.20;nan;100195.81;4998997;28;97214;-72
2020/12/22 06:33:50;;;;;;;1.80;1.80;;;;;;;18.23;nan;100198.47;5017506;28;96982;-71
2020/12/22 06:36:18;;;;;;;1.90;1.90;;;;;;;18.18;nan;100193.13;5007843;28;102878;-71
2020/12/22 06:38:51;;;;;;;1.90;1.90;;;;;;;18.21;nan;100198.47;5029072;28;97068;-72
2020/12/22 06:41:46;;;;;;;29.15;12.20;;;;;;;18.30;nan;100199.47;5030347;28;97141;-72
2020/12/22 06:44:15;;;;;;;3.42;3.17;;;;;;;18.25;nan;100198.53;5008598;28;98012;-70
2020/12/22 06:46:44;;;;;;;1.95;1.95;;;;;;;18.29;nan;100195.91;4990949;28;100401;-71
2020/12/22 06:49:13;;;;;;;1.80;1.70;;;;;;;18.29;nan;100200.34;5026889;28;97134;-71
2020/12/22 06:51:42;;;;;;;2.05;2.05;;;;;;;18.36;nan;100202.19;5029080;28;96937;-71
2020/12/22 06:54:31;;;;;;;1.92;1.92;;;;;;;18.39;nan;100195.19;5027170;28;97882;-70
2020/12/22 06:56:59;;;;;;;1.80;1.80;;;;;;;18.44;nan;100213.88;5027142;28;98819;-72
2020/12/22 06:59:48;;;;;;;1.83;1.83;;;;;;;18.46;nan;100212.13;5009213;28;97074;-72
2020/12/22 07:02:32;;;;;;;1.95;1.95;;;;;;;18.47;nan;100211.25;5029753;28;97313;-73
2020/12/22 07:05:02;;;;;;;1.85;1.85;;;;;;;18.59;nan;100214.06;5008610;28;98376;-71
2020/12/22 07:07:57;;;;;;;1.92;1.90;;;;;;;18.61;nan;100213.19;5009005;28;98107;-72
2020/12/22 07:10:27;;;;;;;1.83;1.83;;;;;;;18.75;nan;100216.03;5017043;28;97758;-72
2020/12/22 07:12:59;;;;;;;1.63;1.60;;;;;;;18.80;nan;100206.31;5029705;28;97244;-71
2020/12/22 07:15:47;;;;;;;1.90;1.77;;;;;;;18.82;nan;100218.78;5026873;28;99490;-72
2020/12/22 07:18:19;;;;;;;1.88;1.83;;;;;;;18.81;nan;100226.75;5029371;28;101251;-72
2020/12/22 07:20:48;;;;;;;1.90;1.90;;;;;;;18.85;nan;100223.25;4994530;28;97110;-72
2020/12/22 07:23:16;;;;;;;1.75;1.75;;;;;;;18.90;nan;100232.16;5024603;28;97049;-70
2020/12/22 07:25:44;;;;;;;1.90;1.90;;;;;;;18.95;nan;100230.44;5028036;28;98191;-74
2020/12/22 07:28:16;;;;;;;1.77;1.73;;;;;;;18.95;nan;100231.34;5007148;28;97375;-73
2020/12/22 07:30:44;;;;;;;1.70;1.70;;;;;;;18.99;nan;100226.94;5027472;28;97286;-72
2020/12/22 07:33:12;;;;;;;1.70;1.70;;;;;;;19.06;nan;100237.69;5005978;28;97390;-72
2020/12/22 07:35:39;;;;;;;1.63;1.63;;;;;;;19.07;nan;100241.22;5025003;28;98103;-73
2020/12/22 07:38:10;;;;;;;1.90;1.90;;;;;;;19.12;nan;100242.19;5022075;28;97328;-73
2020/12/22 07:40:42;;;;;;;1.83;1.60;;;;;;;19.16;nan;100241.31;5024893;28;96861;-73
2020/12/22 07:43:11;;;;;;;1.92;1.92;;;;;;;19.16;nan;100251.97;5024550;28;97411;-72
2020/12/22 07:45:47;;;;;;;1.90;1.80;;;;;;;19.18;nan;100252.88;5025618;28;97910;-73
2020/12/22 07:48:15;;;;;;;1.65;1.65;;;;;;;19.23;nan;100260.91;5005819;28;97638;-72
2020/12/22 07:50:42;;;;;;;2.00;1.90;;;;;;;19.23;nan;100255.59;5026729;28;96609;-72
2020/12/22 07:53:11;;;;;;;1.63;1.63;;;;;;;19.26;nan;100256.50;5008981;28;97165;-72
2020/12/22 07:55:39;;;;;;;1.50;1.50;;;;;;;19.23;nan;100266.25;5009168;28;98042;-72
2020/12/22 07:58:08;;;;;;;1.60;1.60;;;;;;;19.25;nan;100256.50;5025234;28;96746;-73
2020/12/22 08:00:36;;;;;;;1.60;1.60;;;;;;;19.25;nan;100259.16;5025119;28;96792;-73
2020/12/22 08:03:13;;;;;;;1.70;1.70;;;;;;;19.32;nan;100267.28;5025654;28;97172;-73
2020/12/22 08:05:41;;;;;;;1.38;1.38;;;;;;;19.32;nan;100259.28;5009093;28;97976;-73
2020/12/22 08:08:09;;;;;;;1.70;1.70;;;;;;;19.39;nan;100266.44;5023928;28;98391;-73
2020/12/22 08:10:37;;;;;;;1.67;1.67;;;;;;;19.43;nan;100264.72;5023389;28;97373;-73
2020/12/22 08:13:06;;;;;;;1.48;1.48;;;;;;;19.44;nan;100263.81;5023815;28;97507;-72
2020/12/22 08:15:34;;;;;;;1.50;1.50;;;;;;;19.47;nan;100255.88;5028213;28;98237;-73
2020/12/22 08:18:05;;;;;;;1.40;1.40;;;;;;;19.53;nan;100253.25;5028426;28;98903;-72
2020/12/22 08:20:34;;;;;;;1.50;1.50;;;;;;;19.61;nan;100267.53;5005999;28;97235;-73
2020/12/22 08:23:13;;;;;;;1.90;1.80;;;;;;;19.64;nan;100273.78;5026557;28;97155;-72
2020/12/22 08:25:43;;;;;;;1.88;1.88;;;;;;;19.65;nan;100269.34;5010724;28;97322;-72
2020/12/22 08:28:10;;;;;;;1.67;1.67;;;;;;;19.72;nan;100274.75;5027299;28;96773;-73
2020/12/22 08:30:38;;;;;;;1.60;1.60;;;;;;;19.78;nan;100284.56;5029300;28;96592;-73
2020/12/22 08:33:06;;;;;;;1.50;1.50;;;;;;;19.80;nan;100282.78;4993912;28;96893;-71
2020/12/22 08:35:34;;;;;;;1.52;1.52;;;;;;;19.85;nan;100289.94;5018135;28;97948;-72
2020/12/22 08:38:25;;;;;;;2.08;2.00;;;;;;;19.93;nan;100282.00;5007915;28;97809;-72
2020/12/22 08:40:55;;;;;;;1.60;1.60;;;;;;;19.92;nan;100285.56;5010267;28;97664;-73
2020/12/22 08:43:24;;;;;;;1.83;1.83;;;;;;;19.90;nan;100293.56;5010375;28;96910;-71
2020/12/22 08:45:52;;;;;;;1.48;1.48;;;;;;;19.97;nan;100291.81;4987110;28;99101;-73
2020/12/22 08:48:20;;;;;;;2.20;2.10;;;;;;;19.98;nan;100291.81;5008080;28;99867;-73
2020/12/22 08:50:49;;;;;;;1.83;1.83;;;;;;;20.03;nan;100291.88;5001868;28;96952;-73
2020/12/22 08:53:53;;;;;;;1.60;1.60;;;;;;;20.09;nan;100310.56;5025449;28;96733;-72
2020/12/22 08:56:24;;;;;;;1.85;1.80;;;;;;;20.13;nan;100296.38;5009285;28;97940;-72
2020/12/22 08:58:56;;;;;;;1.52;1.52;;;;;;;20.18;nan;100292.03;5019657;28;97779;-72
2020/12/22 09:01:26;;;;;;;1.70;1.70;;;;;;;20.23;nan;100337.38;5015682;28;97031;-72
2020/12/22 09:04:13;;;;;;;1.90;1.90;;;;;;;20.29;nan;100319.63;5018428;28;97005;-72
2020/12/22 09:06:42;;;;;;;1.60;1.50;;;;;;;20.40;nan;100301.06;5023124;28;97785;-72
2020/12/22 09:09:13;;;;;;;1.70;1.70;;;;;;;20.49;nan;100317.13;5005020;28;98240;-73
2020/12/22 09:11:42;;;;;;;1.50;1.50;;;;;;;20.57;nan;100312.69;5023521;28;97334;-71
2020/12/22 09:14:11;;;;;;;1.98;1.98;;;;;;;20.65;nan;100318.97;5001859;28;97398;-72
2020/12/22 09:16:46;;;;;;;1.63;1.63;;;;;;;20.73;nan;100335.94;5017431;28;98096;-71
2020/12/22 09:19:14;;;;;;;1.50;1.50;;;;;;;20.72;nan;100323.47;5018496;28;98810;-71
2020/12/22 09:21:42;;;;;;;1.83;1.73;;;;;;;20.75;nan;100327.03;5024674;28;97008;-71
2020/12/22 09:24:16;;;;;;;1.50;1.50;;;;;;;20.84;nan;100328.84;5019706;28;96814;-70
2020/12/22 09:26:58;;;;;;;1.50;1.50;;;;;;;20.95;nan;100330.69;5023363;28;99227;-73
2020/12/22 09:29:27;;;;;;;1.83;1.83;;;;;;;20.98;nan;100329.84;4996602;28;99929;-71
2020/12/22 09:31:55;;;;;;;1.60;1.60;;;;;;;21.02;nan;100323.66;5008879;28;97173;-71
2020/12/22 09:34:23;;;;;;;1.60;1.60;;;;;;;21.01;nan;100352.13;5026927;28;97465;-70
2020/12/22 09:37:11;;;;;;;1.60;1.60;;;;;;;21.08;nan;100343.25;5025273;28;98842;-72
2020/12/22 09:39:38;;;;;;;1.85;1.85;;;;;;;21.15;nan;100329.03;5025433;28;98203;-71
2020/12/22 09:42:27;;;;;;;1.95;1.85;;;;;;;21.22;nan;100340.66;5024912;28;98193;-71
2020/12/22 09:44:55;;;;;;;1.98;1.73;;;;;;;21.23;nan;100347.75;5004895;28;98995;-71
2020/12/22 09:47:22;;;;;;;3.50;3.20;;;;;;;21.28;nan;100348.66;5024164;28;98122;-72
2020/12/22 09:50:08;;;;;;;1.92;1.92;;;;;;;21.32;nan;100352.22;5023084;28;97263;-71
2020/12/22 09:52:35;;;;;;;1.85;1.85;;;;;;;21.39;nan;100352.25;5023416;28;96852;-71
2020/12/22 09:55:03;;;;;;;1.58;1.58;;;;;;;21.42;nan;100351.38;5001197;28;97318;-72
2020/12/22 09:57:31;;;;;;;1.77;1.67;;;;;;;21.50;nan;100346.94;5021135;28;98104;-71
2020/12/22 09:59:59;;;;;;;1.42;1.42;;;;;;;21.48;nan;100348.72;5004007;28;98494;-71
2020/12/22 10:02:28;;;;;;;1.60;1.55;;;;;;;21.50;nan;100336.25;5020484;28;97361;-71
2020/12/22 10:04:55;;;;;;;3.45;1.98;;;;;;;21.52;nan;100346.06;5021276;28;96885;-71
2020/12/22 10:07:23;;;;;;;2.60;1.55;;;;;;;21.52;nan;100353.19;5021311;28;97921;-72
2020/12/22 10:09:50;;;;;;;1.90;1.90;;;;;;;21.48;nan;100354.94;5022078;28;99030;-72
2020/12/22 10:12:18;;;;;;;1.88;1.80;;;;;;;21.48;nan;100364.75;5025947;27;96911;-72
2020/12/22 10:14:46;;;;;;;2.15;2.08;;;;;;;21.51;nan;100354.97;5006714;28;97475;-72
2020/12/22 10:17:14;;;;;;;2.45;2.25;;;;;;;21.50;nan;100371.00;5008280;28;96948;-72
2020/12/22 10:19:41;;;;;;;3.00;2.78;;;;;;;21.53;nan;100371.88;5024959;28;99657;-71
2020/12/22 10:22:09;;;;;;;2.25;2.20;;;;;;;21.54;nan;100381.72;5028532;28;97214;-71
2020/12/22 10:24:37;;;;;;;2.50;2.30;;;;;;;21.48;nan;100392.38;5026163;28;98145;-72
2020/12/22 10:27:05;;;;;;;2.22;2.13;;;;;;;21.46;nan;100374.56;5026966;28;99222;-71
2020/12/22 10:29:32;;;;;;;2.20;2.10;;;;;;;21.43;nan;100378.13;4993461;28;99357;-72
2020/12/22 10:32:03;;;;;;;2.45;2.35;;;;;;;21.45;nan;100379.00;5027888;28;96861;-72
2020/12/22 10:34:49;;;;;;;2.10;2.00;;;;;;;21.41;nan;100377.22;5026209;28;96924;-72
2020/12/22 10:37:16;;;;;;;2.10;2.00;;;;;;;21.38;nan;100374.53;5009730;28;97198;-72
2020/12/22 10:39:48;;;;;;;3.03;1.83;;;;;;;21.41;nan;100377.22;5005100;28;97484;-72
2020/12/22 10:42:15;;;;;;;1.83;1.83;;;;;;;21.39;nan;100378.09;5008741;28;97667;-71
2020/12/22 10:44:43;;;;;;;2.10;2.10;;;;;;;21.35;nan;100379.84;5023281;28;96876;-71
2020/12/22 10:47:11;;;;;;;1.90;1.80;;;;;;;21.32;nan;100385.19;4990622;28;101078;-71
2020/12/22 10:49:38;;;;;;;1.83;1.73;;;;;;;21.36;nan;100395.03;5007774;28;97873;-71
2020/12/22 10:52:07;;;;;;;2.42;2.33;;;;;;;21.39;nan;100389.66;5026988;28;97925;-72
2020/12/22 10:54:40;;;;;;;1.90;1.80;;;;;;;21.47;nan;100384.34;5022412;28;97860;-72
2020/12/22 10:57:08;;;;;;;1.90;1.90;;;;;;;21.47;nan;100384.34;4989014;28;98309;-71
2020/12/22 10:59:35;;;;;;;1.98;1.98;;;;;;;21.51;nan;100379.03;5027533;28;97855;-72
2020/12/22 11:02:03;;;;;;;2.17;2.08;;;;;;;21.54;nan;100395.06;5026742;28;96567;-72
2020/12/22 11:04:32;;;;;;;3.17;2.35;;;;;;;21.53;nan;100395.94;5010691;28;97379;-72
2020/12/22 11:07:03;;;;;;;2.03;1.92;;;;;;;21.54;nan;100407.53;5027273;28;97733;-70
2020/12/22 11:09:31;;;;;;;2.00;1.90;;;;;;;21.50;nan;100412.00;5025816;28;98039;-72
2020/12/22 11:11:59;;;;;;;1.80;1.70;;;;;;;21.48;nan;100413.75;5023859;28;96652;-72
2020/12/22 11:14:28;;;;;;;2.03;2.00;;;;;;;21.47;nan;100408.41;5010959;28;98336;-72
2020/12/22 11:16:55;;;;;;;2.00;2.00;;;;;;;21.46;nan;100410.19;5025346;28;97615;-72
2020/12/22 11:19:23;;;;;;;1.80;1.80;;;;;;;21.47;nan;100411.09;4990735;28;97682;-71
2020/12/22 11:21:51;;;;;;;2.00;2.00;;;;;;;21.42;nan;100419.09;5024305;27;97304;-72
2020/12/22 11:24:18;;;;;;;2.00;2.00;;;;;;;21.42;nan;100410.19;4992545;28;97498;-72
2020/12/22 11:26:46;;;;;;;1.90;1.80;;;;;;;21.40;nan;100412.88;5011492;28;99075;-72
2020/12/22 11:29:14;;;;;;;2.20;2.10;;;;;;;21.38;nan;100425.31;5008425;28;96987;-71
2020/12/22 11:31:41;;;;;;;2.35;2.25;;;;;;;21.40;nan;100414.63;5029236;28;97137;-72
2020/12/22 11:34:09;;;;;;;2.55;2.40;;;;;;;21.39;nan;100407.47;5011583;28;96839;-72
2020/12/22 11:36:37;;;;;;;2.15;2.15;;;;;;;21.43;nan;100415.53;5024702;28;99155;-72
2020/12/22 11:39:05;;;;;;;1.95;1.95;;;;;;;21.44;nan;100422.66;5010778;28;101236;-72
2020/12/22 11:41:33;;;;;;;2.28;2.17;;;;;;;21.43;nan;100426.22;5024512;28;97490;-72
2020/12/22 11:44:02;;;;;;;2.17;2.17;;;;;;;21.48;nan;100420.88;5024703;28;97655;-71
2020/12/22 11:46:29;;;;;;;2.58;2.47;;;;;;;21.55;nan;100420.03;5023372;28;97283;-72
2020/12/22 11:49:15;;;;;;;2.30;2.15;;;;;;;21.57;nan;100415.59;5025810;28;98001;-73
2020/12/22 11:51:42;;;;;;;2.38;2.28;;;;;;;21.67;nan;100414.72;5027567;28;97109;-73
2020/12/22 11:54:11;;;;;;;2.80;2.60;;;;;;;21.75;nan;100423.66;5025470;28;96746;-73
2020/12/22 11:56:38;;;;;;;2.40;2.30;;;;;;;21.79;nan;100412.09;5007668;28;97313;-73